LTBJ/ADB METAR and TAF weather

Enter ICAO airport designator
Station Type Date Time Source
LTBJ METAR 2021/05/13 05:20 UTC NOAA

LTBJ 130520Z 14004KT 110V180 CAVOK 16/10 Q1008 NOSIG


Station Type Date Time Source
LTBJ Decoded METAR 2021/05/13 05:20 UTC NOAA

Izmir / Adnan Menderes, Turkey (LTBJ) 38-16N 027-09E 120M
May 13, 2021 - 01:20 AM EDT / 2021.05.13 0520 UTC
Wind: from the SE (140 degrees) at 5 MPH (4 KT) (direction variable):0
Visibility: greater than 7 mile(s):0
Temperature: 60 F (16 C)
Dew Point: 50 F (10 C)
Relative Humidity: 67%
Pressure (altimeter): 29.77 in. Hg (1008 hPa)
ob: LTBJ 130520Z 14004KT 110V180 CAVOK 16/10 Q1008 NOSIG
cycle: 5

Station Type Date Time Source
LTBJ TAF 2021/05/13 06:03 UTC NOAA

TAF LTBJ 130440Z 1306/1406 VRB02KT CAVOK
BECMG 1306/1309 19013KT FEW030 SCT200
BECMG 1312/1315 CAVOK
BECMG 1316/1318 VRB02KT
BECMG 1321/1324 FEW010 SCT030

Example: see airport list